createdAt,value
2019-05-20T00:04:07.348Z,189.93
2019-05-20T00:08:19.515Z,189.77
2019-05-20T00:12:29.806Z,190.43
2019-05-20T00:16:40.114Z,193.87
2019-05-20T00:20:51.936Z,189.53
2019-05-20T00:25:02.154Z,187.90
2019-05-20T00:29:12.829Z,188.65
2019-05-20T00:33:23.321Z,189.13
2019-05-20T00:37:33.616Z,187.60
2019-05-20T00:41:45.241Z,190.67
2019-05-20T00:45:55.638Z,190.70
2019-05-20T00:50:06.404Z,190.30
2019-05-20T00:54:17.104Z,205.60
2019-05-20T00:58:27.596Z,196.78
2019-05-20T01:02:37.889Z,190.62
2019-05-20T01:06:48.189Z,189.33
2019-05-20T01:10:58.543Z,188.05
2019-05-20T01:15:10.994Z,191.73
2019-05-20T01:19:21.227Z,188.70
2019-05-20T01:23:31.696Z,191.47
2019-05-20T01:27:42.003Z,190.57
2019-05-20T01:31:52.325Z,188.57
2019-05-20T01:36:02.545Z,187.43
2019-05-20T01:40:13.213Z,190.73
2019-05-20T01:44:23.471Z,194.17
2019-05-20T01:48:33.803Z,192.37
2019-05-20T01:52:44.047Z,200.87
2019-05-20T01:56:54.397Z,191.53
2019-05-20T02:01:04.697Z,190.77
2019-05-20T02:05:15.063Z,192.80
2019-05-20T02:09:25.401Z,190.90
2019-05-20T02:13:37.408Z,200.13
2019-05-20T02:17:47.848Z,197.27
2019-05-20T02:21:58.149Z,196.37
2019-05-20T02:26:09.111Z,195.33
2019-05-20T02:30:19.439Z,197.53
2019-05-20T02:34:29.798Z,195.50
2019-05-20T02:38:41.201Z,198.30
2019-05-20T02:42:53.284Z,198.20
2019-05-20T02:47:03.697Z,196.90
2019-05-20T02:51:14.030Z,196.23
2019-05-20T02:55:24.350Z,194.50
2019-05-20T02:59:34.665Z,190.80
2019-05-20T03:03:45.007Z,190.83
2019-05-20T03:07:55.249Z,189.77
2019-05-20T03:12:05.614Z,192.53
2019-05-20T03:16:16.110Z,192.43
2019-05-20T03:20:26.448Z,195.13
2019-05-20T03:24:37.948Z,194.13
2019-05-20T03:28:48.946Z,190.53
2019-05-20T03:33:00.063Z,202.83
2019-05-20T03:37:10.385Z,203.03
2019-05-20T03:41:21.465Z,195.57
2019-05-20T03:45:32.365Z,197.87
2019-05-20T03:49:42.636Z,195.00
2019-05-20T03:53:52.844Z,201.33
2019-05-20T03:58:03.262Z,197.93
2019-05-20T04:02:14.303Z,192.50
2019-05-20T04:06:26.414Z,194.53
2019-05-20T04:10:36.737Z,196.75
2019-05-20T04:14:47.067Z,202.43
2019-05-20T04:18:57.548Z,197.07
2019-05-20T04:23:07.959Z,194.80
2019-05-20T04:27:18.829Z,194.10
2019-05-20T04:31:29.137Z,198.60
2019-05-20T04:35:39.421Z,196.63
2019-05-20T04:39:49.802Z,205.07
2019-05-20T04:44:02.752Z,198.40
2019-05-20T04:48:14.063Z,202.97
2019-05-20T04:52:24.445Z,206.13
2019-05-20T04:56:34.724Z,199.87
2019-05-20T05:00:50.343Z,201.12
2019-05-20T05:05:00.670Z,207.62
2019-05-20T05:09:15.461Z,203.75
2019-05-20T05:13:24.412Z,213.03
2019-05-20T05:17:35.896Z,199.53
2019-05-20T05:21:46.659Z,206.85
2019-05-20T05:25:58.115Z,204.43
2019-05-20T05:30:08.779Z,198.95
2019-05-20T05:34:19.298Z,204.68
2019-05-20T05:38:29.696Z,197.62
2019-05-20T05:42:40.008Z,200.30
2019-05-20T05:46:50.356Z,208.40
2019-05-20T05:51:00.657Z,200.70
2019-05-20T05:55:11.195Z,199.47
2019-05-20T05:59:21.539Z,194.62
2019-05-20T06:03:31.884Z,204.82
2019-05-20T06:07:42.288Z,207.43
2019-05-20T06:11:53.385Z,206.47
2019-05-20T06:16:04.046Z,205.30
2019-05-20T06:20:14.993Z,206.23
2019-05-20T06:24:25.340Z,200.03
2019-05-20T06:28:37.990Z,209.62
2019-05-20T06:32:48.350Z,206.25
2019-05-20T06:37:03.987Z,200.38
2019-05-20T06:41:15.105Z,202.28
2019-05-20T06:45:25.424Z,208.15
2019-05-20T06:49:35.903Z,205.05
2019-05-20T06:53:46.261Z,204.18
2019-05-20T06:57:56.632Z,207.20
2019-05-20T07:02:07.118Z,192.50
2019-05-20T07:06:18.429Z,203.70
2019-05-20T07:10:28.641Z,201.60
2019-05-20T07:14:38.998Z,200.62
2019-05-20T07:18:49.363Z,203.73
2019-05-20T07:23:00.173Z,203.37
2019-05-20T07:27:10.409Z,206.47
2019-05-20T07:31:20.727Z,206.05
2019-05-20T07:35:31.468Z,208.32
2019-05-20T07:39:43.589Z,208.95
2019-05-20T07:43:55.192Z,208.75
2019-05-20T07:48:06.001Z,208.80
2019-05-20T07:52:16.300Z,205.95
2019-05-20T07:56:29.577Z,209.50
2019-05-20T08:00:40.818Z,205.92
2019-05-20T08:04:52.096Z,212.63
2019-05-20T08:09:04.744Z,206.70
2019-05-20T08:13:15.095Z,203.47
2019-05-20T08:17:25.641Z,207.70
2019-05-20T08:21:35.960Z,206.47
2019-05-20T08:25:46.499Z,206.70
2019-05-20T08:29:56.833Z,207.37
2019-05-20T08:34:07.177Z,206.63
2019-05-20T08:38:18.081Z,211.07
2019-05-20T08:42:31.146Z,215.43
2019-05-20T08:46:41.500Z,208.70
2019-05-20T08:50:51.822Z,209.27
2019-05-20T08:55:02.674Z,201.92
2019-05-20T08:59:13.111Z,205.65
2019-05-20T09:03:23.535Z,206.23
2019-05-20T09:07:34.381Z,206.80
2019-05-20T09:11:47.667Z,211.80
2019-05-20T09:15:58.228Z,206.93
2019-05-20T09:20:10.161Z,207.10
2019-05-20T09:24:20.511Z,210.13
2019-05-20T09:28:30.758Z,206.53
2019-05-20T09:32:42.904Z,204.53
2019-05-20T09:36:53.678Z,209.25
2019-05-20T09:41:04.053Z,203.67
2019-05-20T09:45:14.382Z,210.80
2019-05-20T09:49:24.789Z,208.15
2019-05-20T09:53:35.190Z,205.50
2019-05-20T09:57:45.522Z,203.77
2019-05-20T10:01:56.049Z,207.83
2019-05-20T10:06:06.513Z,203.42
2019-05-20T10:10:17.011Z,203.77
2019-05-20T10:14:27.274Z,212.63
2019-05-20T10:18:39.233Z,202.40
2019-05-20T10:22:49.490Z,206.25
2019-05-20T10:26:59.955Z,202.78
2019-05-20T10:31:10.307Z,202.68
2019-05-20T10:35:22.232Z,202.50
2019-05-20T10:39:32.569Z,203.18
2019-05-20T10:43:42.959Z,203.18
2019-05-20T10:47:53.336Z,200.45
2019-05-20T10:52:03.637Z,212.53
2019-05-20T10:56:14.274Z,206.55
2019-05-20T11:00:25.061Z,207.15
2019-05-20T11:04:35.716Z,202.43
2019-05-20T11:08:46.110Z,204.45
2019-05-20T11:12:56.462Z,201.45
2019-05-20T11:17:06.929Z,207.37
2019-05-20T11:21:17.260Z,204.15
2019-05-20T11:25:27.573Z,202.75
2019-05-20T11:29:37.911Z,200.07
2019-05-20T11:33:49.504Z,200.20
2019-05-20T11:38:00.641Z,198.82
2019-05-20T11:42:11.005Z,201.15
2019-05-20T11:46:21.568Z,199.65
2019-05-20T11:50:32.785Z,207.72
2019-05-20T11:54:43.037Z,203.45
2019-05-20T11:58:53.448Z,200.25
2019-05-20T12:03:03.907Z,214.75
2019-05-20T12:07:14.350Z,202.05
2019-05-20T12:11:24.665Z,199.00
2019-05-20T12:15:34.994Z,209.30
2019-05-20T12:19:45.873Z,205.85
2019-05-20T12:23:56.378Z,197.70
2019-05-20T12:28:06.806Z,198.70
2019-05-20T12:32:18.592Z,201.15
2019-05-20T12:36:28.905Z,201.42
2019-05-20T12:40:40.864Z,203.62
2019-05-20T12:44:52.238Z,198.60
2019-05-20T12:49:02.662Z,202.35
2019-05-20T12:53:13.322Z,206.15
2019-05-20T12:57:23.501Z,205.90
2019-05-20T13:01:33.947Z,202.18
2019-05-20T13:05:44.451Z,205.30
2019-05-20T13:09:54.921Z,211.03
2019-05-20T13:14:05.244Z,203.10
2019-05-20T13:18:16.154Z,205.22
2019-05-20T13:22:26.581Z,199.97
2019-05-20T13:26:36.856Z,204.57
2019-05-20T13:30:47.439Z,205.00
2019-05-20T13:34:57.741Z,203.30
2019-05-20T13:39:08.417Z,207.72
2019-05-20T13:43:18.766Z,198.05
2019-05-20T13:47:29.065Z,199.68
2019-05-20T13:51:39.437Z,197.00
2019-05-20T13:55:51.244Z,199.20
2019-05-20T14:00:01.556Z,198.32
2019-05-20T14:04:12.818Z,200.68
2019-05-20T14:08:23.107Z,197.62
2019-05-20T14:12:34.951Z,200.82
2019-05-20T14:16:45.476Z,197.60
2019-05-20T14:20:55.786Z,194.82
2019-05-20T14:25:07.933Z,190.47
2019-05-20T14:29:18.288Z,192.25
2019-05-20T14:33:28.627Z,194.93
2019-05-20T14:37:39.363Z,193.22
2019-05-20T14:41:49.889Z,199.50
2019-05-20T14:46:00.695Z,192.05
2019-05-20T14:50:11.381Z,192.90
2019-05-20T14:54:22.258Z,184.72
2019-05-20T14:58:32.576Z,189.10
2019-05-20T15:02:42.778Z,189.80
2019-05-20T15:06:53.834Z,189.72
2019-05-20T15:11:04.215Z,192.90
2019-05-20T15:15:16.544Z,195.57
2019-05-20T15:19:26.889Z,189.65
2019-05-20T15:23:39.167Z,190.62
2019-05-20T15:27:49.960Z,189.03
2019-05-20T15:32:00.335Z,191.65
2019-05-20T15:36:10.643Z,191.70
2019-05-20T15:40:24.132Z,196.60
2019-05-20T15:44:32.865Z,193.55
2019-05-20T15:48:43.164Z,193.25
2019-05-20T15:52:53.531Z,194.30
2019-05-20T15:57:03.826Z,197.43
2019-05-20T16:01:14.145Z,193.95
2019-05-20T16:05:24.439Z,193.30
2019-05-20T16:09:34.729Z,207.43
2019-05-20T16:13:45.070Z,192.82
2019-05-20T16:17:55.466Z,198.78
2019-05-20T16:22:05.906Z,196.72
2019-05-20T16:26:18.094Z,202.43
2019-05-20T16:30:28.490Z,194.90
2019-05-20T16:34:39.835Z,191.68
2019-05-20T16:38:51.713Z,193.15
2019-05-20T16:43:02.175Z,196.18
2019-05-20T16:47:12.514Z,192.70
2019-05-20T16:51:23.377Z,191.43
2019-05-20T16:55:33.752Z,193.13
2019-05-20T16:59:44.085Z,190.32
2019-05-20T17:03:54.412Z,189.95
2019-05-20T17:08:04.628Z,195.43
2019-05-20T17:12:14.930Z,196.45
2019-05-20T17:16:25.245Z,201.75
2019-05-20T17:20:35.546Z,193.53
2019-05-20T17:24:47.053Z,193.40
2019-05-20T17:28:57.503Z,196.35
2019-05-20T17:33:07.846Z,194.67
2019-05-20T17:37:18.398Z,198.77
2019-05-20T17:41:28.857Z,196.47
2019-05-20T17:45:40.325Z,199.32
2019-05-20T17:49:50.838Z,198.63
2019-05-20T17:54:01.181Z,210.40
2019-05-20T17:58:12.599Z,206.10
2019-05-20T18:02:23.026Z,202.47
2019-05-20T18:06:33.396Z,194.40
2019-05-20T18:10:43.673Z,202.87
2019-05-20T18:14:55.538Z,194.50
2019-05-20T18:19:05.765Z,198.57
2019-05-20T18:23:16.084Z,199.20
2019-05-20T18:27:26.275Z,195.93
2019-05-20T18:31:36.611Z,197.57
2019-05-20T18:35:46.969Z,202.17
2019-05-20T18:40:12.788Z,198.53
2019-05-20T18:44:13.196Z,202.87
2019-05-20T18:48:21.879Z,204.40
2019-05-20T18:52:32.357Z,199.07
2019-05-20T18:56:42.706Z,196.90
2019-05-20T19:00:53.423Z,198.73
2019-05-20T19:05:07.087Z,204.47
2019-05-20T19:09:17.794Z,199.67
2019-05-20T19:13:28.156Z,198.13
2019-05-20T19:17:38.669Z,202.17
2019-05-20T19:21:50.091Z,211.17
2019-05-20T19:26:00.417Z,205.67
2019-05-20T19:30:11.330Z,196.67
2019-05-20T19:34:21.878Z,196.73
2019-05-20T19:38:34.926Z,199.10
2019-05-20T19:42:44.400Z,193.80
2019-05-20T19:46:54.707Z,198.20
2019-05-20T19:51:05.017Z,198.00
2019-05-20T19:55:18.621Z,198.67
2019-05-20T19:59:27.342Z,194.97
2019-05-20T20:03:37.548Z,197.93
2019-05-20T20:07:47.987Z,195.87
2019-05-20T20:11:58.641Z,199.90
2019-05-20T20:16:09.050Z,207.53
2019-05-20T20:20:19.355Z,203.10
2019-05-20T20:24:29.596Z,198.67
2019-05-20T20:28:40.814Z,206.70
2019-05-20T20:32:51.569Z,203.13
2019-05-20T20:37:01.880Z,200.63
2019-05-20T20:41:12.314Z,199.60
2019-05-20T20:45:22.738Z,205.13
2019-05-20T20:49:33.104Z,198.93
2019-05-20T20:53:43.437Z,202.20
2019-05-20T20:57:54.013Z,205.37
2019-05-20T21:02:04.565Z,207.97
2019-05-20T21:06:15.021Z,207.83
2019-05-20T21:10:26.936Z,209.67
2019-05-20T21:14:37.278Z,208.20
2019-05-20T21:18:48.715Z,209.60
2019-05-20T21:22:59.156Z,214.50
2019-05-20T21:27:09.517Z,212.03
2019-05-20T21:31:19.791Z,217.63
2019-05-20T21:35:30.201Z,219.93
2019-05-20T21:39:40.846Z,221.17
2019-05-20T21:43:51.233Z,219.93
2019-05-20T21:48:01.686Z,218.77
2019-05-20T21:52:12.070Z,217.93
2019-05-20T21:56:22.381Z,227.60
2019-05-20T22:00:37.339Z,215.13
2019-05-20T22:04:48.635Z,220.00
2019-05-20T22:08:58.959Z,223.50
2019-05-20T22:13:09.404Z,219.30
2019-05-20T22:17:19.715Z,217.07
2019-05-20T22:21:34.276Z,218.73
2019-05-20T22:25:46.748Z,212.00
2019-05-20T22:29:57.101Z,222.97
2019-05-20T22:34:07.426Z,209.77
2019-05-20T22:38:18.740Z,210.83
2019-05-20T22:42:29.107Z,201.67
2019-05-20T22:46:39.418Z,213.30
2019-05-20T22:50:51.006Z,211.77
2019-05-20T22:55:01.307Z,210.60
2019-05-20T22:59:12.132Z,208.87
2019-05-20T23:03:23.500Z,211.23
2019-05-20T23:07:33.764Z,207.17
2019-05-20T23:11:44.061Z,203.70
2019-05-20T23:15:55.774Z,213.43
2019-05-20T23:20:07.917Z,211.17
2019-05-20T23:24:18.374Z,210.43
2019-05-20T23:28:28.605Z,208.93
2019-05-20T23:32:39.341Z,199.27
2019-05-20T23:36:49.845Z,207.30
2019-05-20T23:41:01.526Z,201.93
2019-05-20T23:45:12.203Z,208.70
2019-05-20T23:49:22.534Z,202.80
2019-05-20T23:53:32.984Z,203.43
2019-05-20T23:57:43.834Z,204.00
